sensor_id;sensor_type;location;lat;lon;timestamp;noise_LAeq;noise_LA_min;noise_LA_max;noise_LA01;noise_LA95
36217;Laerm;22259;48.792;8.964;2022-09-20T00:02:23;47.24;41.26;55.79;;
36217;Laerm;22259;48.792;8.964;2022-09-20T00:04:48;47.37;42.08;53.93;;
36217;Laerm;22259;48.792;8.964;2022-09-20T00:07:14;45.98;41.77;54.72;;
36217;Laerm;22259;48.792;8.964;2022-09-20T00:09:39;48.30;42.35;56.82;;
36217;Laerm;22259;48.792;8.964;2022-09-20T00:12:05;46.75;42.77;51.99;;
36217;Laerm;22259;48.792;8.964;2022-09-20T00:14:30;47.71;42.19;57.75;;
36217;Laerm;22259;48.792;8.964;2022-09-20T00:16:56;48.73;41.44;58.00;;
36217;Laerm;22259;48.792;8.964;2022-09-20T00:19:21;48.87;43.47;55.90;;
36217;Laerm;22259;48.792;8.964;2022-09-20T00:21:46;48.04;42.56;55.29;;
36217;Laerm;22259;48.792;8.964;2022-09-20T00:24:12;47.62;42.90;59.32;;
36217;Laerm;22259;48.792;8.964;2022-09-20T00:26:38;48.33;41.63;57.11;;
36217;Laerm;22259;48.792;8.964;2022-09-20T00:29:04;47.14;42.19;54.05;;
36217;Laerm;22259;48.792;8.964;2022-09-20T00:31:29;46.88;41.91;55.98;;
36217;Laerm;22259;48.792;8.964;2022-09-20T00:33:55;46.57;40.38;55.56;;
36217;Laerm;22259;48.792;8.964;2022-09-20T00:36:40;49.40;42.68;60.64;;
36217;Laerm;22259;48.792;8.964;2022-09-20T00:39:05;47.29;41.51;56.45;;
36217;Laerm;22259;48.792;8.964;2022-09-20T00:41:31;47.24;42.27;57.59;;
36217;Laerm;22259;48.792;8.964;2022-09-20T00:43:58;45.65;41.16;54.16;;
36217;Laerm;22259;48.792;8.964;2022-09-20T00:46:35;47.36;41.53;56.08;;
36217;Laerm;22259;48.792;8.964;2022-09-20T00:49:04;48.34;41.96;56.61;;
36217;Laerm;22259;48.792;8.964;2022-09-20T00:51:31;50.34;42.03;57.73;;
36217;Laerm;22259;48.792;8.964;2022-09-20T00:53:58;48.15;41.16;56.62;;
36217;Laerm;22259;48.792;8.964;2022-09-20T00:56:27;47.46;40.23;56.54;;
36217;Laerm;22259;48.792;8.964;2022-09-20T00:58:56;46.52;41.73;53.09;;
36217;Laerm;22259;48.792;8.964;2022-09-20T01:01:26;46.90;41.53;57.28;;
36217;Laerm;22259;48.792;8.964;2022-09-20T01:03:51;47.16;42.71;57.17;;
36217;Laerm;22259;48.792;8.964;2022-09-20T01:06:17;47.41;43.37;56.84;;
36217;Laerm;22259;48.792;8.964;2022-09-20T01:08:44;47.37;42.98;56.78;;
36217;Laerm;22259;48.792;8.964;2022-09-20T01:11:11;46.86;41.50;56.40;;
36217;Laerm;22259;48.792;8.964;2022-09-20T01:13:36;46.21;42.35;54.27;;
36217;Laerm;22259;48.792;8.964;2022-09-20T01:16:02;47.09;42.04;58.74;;
36217;Laerm;22259;48.792;8.964;2022-09-20T01:18:29;60.71;42.58;72.59;;
36217;Laerm;22259;48.792;8.964;2022-09-20T01:20:56;48.14;43.77;55.15;;
36217;Laerm;22259;48.792;8.964;2022-09-20T01:23:26;46.28;41.32;56.39;;
36217;Laerm;22259;48.792;8.964;2022-09-20T01:28:39;48.40;42.55;57.79;;
36217;Laerm;22259;48.792;8.964;2022-09-20T01:34:35;48.50;42.09;58.37;;
36217;Laerm;22259;48.792;8.964;2022-09-20T01:42:04;48.83;42.13;57.77;;
36217;Laerm;22259;48.792;8.964;2022-09-20T01:44:48;48.11;43.19;54.78;;
36217;Laerm;22259;48.792;8.964;2022-09-20T01:50:13;48.29;44.30;57.40;;
36217;Laerm;22259;48.792;8.964;2022-09-20T01:52:52;48.03;43.06;56.67;;
36217;Laerm;22259;48.792;8.964;2022-09-20T02:12:21;49.17;41.10;60.12;;
36217;Laerm;22259;48.792;8.964;2022-09-20T02:14:52;51.23;43.02;62.22;;
36217;Laerm;22259;48.792;8.964;2022-09-20T02:17:33;49.34;43.76;55.56;;
36217;Laerm;22259;48.792;8.964;2022-09-20T02:20:29;46.66;42.21;55.07;;
36217;Laerm;22259;48.792;8.964;2022-09-20T02:23:11;45.81;42.76;51.80;;
36217;Laerm;22259;48.792;8.964;2022-09-20T02:25:52;46.57;43.48;52.11;;
36217;Laerm;22259;48.792;8.964;2022-09-20T02:28:22;46.12;43.33;52.94;;
36217;Laerm;22259;48.792;8.964;2022-09-20T02:30:58;51.20;44.25;63.89;;
36217;Laerm;22259;48.792;8.964;2022-09-20T02:37:59;52.26;42.44;63.58;;
36217;Laerm;22259;48.792;8.964;2022-09-20T02:40:49;52.28;44.54;59.65;;
36217;Laerm;22259;48.792;8.964;2022-09-20T02:43:39;51.02;43.37;63.57;;
36217;Laerm;22259;48.792;8.964;2022-09-20T02:46:14;53.52;44.17;70.46;;
36217;Laerm;22259;48.792;8.964;2022-09-20T02:48:47;48.99;43.15;59.47;;
36217;Laerm;22259;48.792;8.964;2022-09-20T02:51:20;48.22;42.92;57.89;;
36217;Laerm;22259;48.792;8.964;2022-09-20T02:54:01;50.32;44.93;59.91;;
36217;Laerm;22259;48.792;8.964;2022-09-20T02:56:33;48.53;43.62;56.47;;
36217;Laerm;22259;48.792;8.964;2022-09-20T02:59:04;48.65;44.43;54.71;;
36217;Laerm;22259;48.792;8.964;2022-09-20T03:01:36;51.09;45.24;60.69;;
36217;Laerm;22259;48.792;8.964;2022-09-20T03:04:14;52.99;44.47;62.18;;
36217;Laerm;22259;48.792;8.964;2022-09-20T03:06:54;51.00;43.93;58.69;;
36217;Laerm;22259;48.792;8.964;2022-09-20T03:09:26;57.00;44.37;74.06;;
36217;Laerm;22259;48.792;8.964;2022-09-20T03:12:09;48.02;43.15;55.10;;
36217;Laerm;22259;48.792;8.964;2022-09-20T03:18:56;53.59;44.61;69.25;;
36217;Laerm;22259;48.792;8.964;2022-09-20T03:24:15;57.35;46.94;66.67;;
36217;Laerm;22259;48.792;8.964;2022-09-20T03:26:50;54.36;46.51;62.89;;
36217;Laerm;22259;48.792;8.964;2022-09-20T03:29:25;54.94;46.05;68.51;;
36217;Laerm;22259;48.792;8.964;2022-09-20T03:37:25;50.73;45.55;60.82;;
36217;Laerm;22259;48.792;8.964;2022-09-20T03:40:13;50.99;43.84;58.96;;
36217;Laerm;22259;48.792;8.964;2022-09-20T03:42:46;50.25;45.50;56.93;;
36217;Laerm;22259;48.792;8.964;2022-09-20T03:45:21;54.37;44.46;68.44;;
36217;Laerm;22259;48.792;8.964;2022-09-20T03:48:04;53.58;45.75;62.26;;
36217;Laerm;22259;48.792;8.964;2022-09-20T03:51:12;53.39;45.82;63.32;;
36217;Laerm;22259;48.792;8.964;2022-09-20T03:53:56;53.29;46.85;59.17;;
36217;Laerm;22259;48.792;8.964;2022-09-20T03:56:43;52.24;46.02;60.34;;
36217;Laerm;22259;48.792;8.964;2022-09-20T03:59:41;53.19;44.58;62.51;;
36217;Laerm;22259;48.792;8.964;2022-09-20T04:02:23;53.38;45.62;65.14;;
36217;Laerm;22259;48.792;8.964;2022-09-20T04:05:04;51.18;45.67;59.07;;
36217;Laerm;22259;48.792;8.964;2022-09-20T04:11:33;51.29;45.44;61.38;;
36217;Laerm;22259;48.792;8.964;2022-09-20T04:14:16;49.62;44.76;56.06;;
36217;Laerm;22259;48.792;8.964;2022-09-20T04:19:37;53.76;46.07;68.65;;
36217;Laerm;22259;48.792;8.964;2022-09-20T04:22:06;49.85;44.73;59.75;;
36217;Laerm;22259;48.792;8.964;2022-09-20T04:25:16;49.92;44.75;57.71;;
36217;Laerm;22259;48.792;8.964;2022-09-20T04:27:46;53.10;46.83;63.88;;
36217;Laerm;22259;48.792;8.964;2022-09-20T04:30:22;54.70;46.84;68.61;;
36217;Laerm;22259;48.792;8.964;2022-09-20T04:32:59;52.35;47.61;57.76;;
36217;Laerm;22259;48.792;8.964;2022-09-20T04:35:41;53.36;47.72;62.85;;
36217;Laerm;22259;48.792;8.964;2022-09-20T04:38:26;53.36;48.25;60.84;;
36217;Laerm;22259;48.792;8.964;2022-09-20T04:41:07;54.66;48.57;68.11;;
36217;Laerm;22259;48.792;8.964;2022-09-20T04:43:52;53.31;47.49;62.87;;
36217;Laerm;22259;48.792;8.964;2022-09-20T04:53:11;51.51;46.11;64.94;;
36217;Laerm;22259;48.792;8.964;2022-09-20T04:55:47;49.62;45.59;57.83;;
36217;Laerm;22259;48.792;8.964;2022-09-20T05:01:56;54.85;46.35;71.51;;
36217;Laerm;22259;48.792;8.964;2022-09-20T05:21:47;52.08;46.61;68.08;;
36217;Laerm;22259;48.792;8.964;2022-09-20T05:24:37;53.37;46.80;65.22;;
36217;Laerm;22259;48.792;8.964;2022-09-20T05:34:18;52.45;45.98;65.29;;
36217;Laerm;22259;48.792;8.964;2022-09-20T05:39:33;53.03;47.97;66.44;;
36217;Laerm;22259;48.792;8.964;2022-09-20T05:42:04;52.51;46.94;62.90;;
36217;Laerm;22259;48.792;8.964;2022-09-20T06:01:10;52.88;46.34;66.32;;
36217;Laerm;22259;48.792;8.964;2022-09-20T06:03:50;52.97;47.12;68.18;;
36217;Laerm;22259;48.792;8.964;2022-09-20T06:06:28;53.31;45.88;68.27;;
36217;Laerm;22259;48.792;8.964;2022-09-20T06:09:06;50.82;44.39;64.59;;
36217;Laerm;22259;48.792;8.964;2022-09-20T06:11:52;50.51;44.56;66.71;;
36217;Laerm;22259;48.792;8.964;2022-09-20T06:23:37;54.51;44.60;68.77;;
36217;Laerm;22259;48.792;8.964;2022-09-20T06:26:05;49.43;45.04;58.88;;
36217;Laerm;22259;48.792;8.964;2022-09-20T06:28:32;47.81;44.53;53.41;;
36217;Laerm;22259;48.792;8.964;2022-09-20T06:30:59;47.46;44.82;52.32;;
36217;Laerm;22259;48.792;8.964;2022-09-20T06:33:25;52.13;44.16;66.40;;
36217;Laerm;22259;48.792;8.964;2022-09-20T06:36:09;53.08;45.41;66.62;;
36217;Laerm;22259;48.792;8.964;2022-09-20T06:41:58;53.55;47.14;63.31;;
36217;Laerm;22259;48.792;8.964;2022-09-20T06:44:24;53.08;46.50;61.70;;
36217;Laerm;22259;48.792;8.964;2022-09-20T06:46:49;53.53;42.94;67.85;;
36217;Laerm;22259;48.792;8.964;2022-09-20T06:49:17;49.33;43.55;69.78;;
36217;Laerm;22259;48.792;8.964;2022-09-20T06:51:43;48.44;42.64;61.84;;
36217;Laerm;22259;48.792;8.964;2022-09-20T06:54:11;51.20;41.79;65.86;;
36217;Laerm;22259;48.792;8.964;2022-09-20T06:56:38;44.22;41.32;51.13;;
36217;Laerm;22259;48.792;8.964;2022-09-20T06:59:04;43.68;40.38;67.93;;
36217;Laerm;22259;48.792;8.964;2022-09-20T07:01:34;46.63;40.41;65.60;;
36217;Laerm;22259;48.792;8.964;2022-09-20T07:03:59;50.76;40.95;69.21;;
36217;Laerm;22259;48.792;8.964;2022-09-20T07:06:25;42.49;40.05;50.64;;
36217;Laerm;22259;48.792;8.964;2022-09-20T07:08:50;42.10;39.37;49.44;;
36217;Laerm;22259;48.792;8.964;2022-09-20T07:11:16;45.57;39.81;59.87;;
36217;Laerm;22259;48.792;8.964;2022-09-20T07:13:42;43.58;39.81;56.71;;
36217;Laerm;22259;48.792;8.964;2022-09-20T07:16:07;53.30;41.32;70.11;;
36217;Laerm;22259;48.792;8.964;2022-09-20T07:18:34;49.16;43.70;54.09;;
36217;Laerm;22259;48.792;8.964;2022-09-20T07:21:00;48.41;40.50;64.47;;
36217;Laerm;22259;48.792;8.964;2022-09-20T07:23:26;54.37;40.85;66.07;;
36217;Laerm;22259;48.792;8.964;2022-09-20T07:25:52;43.21;40.82;54.69;;
36217;Laerm;22259;48.792;8.964;2022-09-20T07:28:17;43.84;40.53;51.27;;
36217;Laerm;22259;48.792;8.964;2022-09-20T07:30:46;50.46;41.88;65.83;;
36217;Laerm;22259;48.792;8.964;2022-09-20T07:33:12;49.27;41.46;64.74;;
36217;Laerm;22259;48.792;8.964;2022-09-20T07:35:43;43.79;40.85;53.69;;
36217;Laerm;22259;48.792;8.964;2022-09-20T07:38:08;44.55;41.64;61.79;;
36217;Laerm;22259;48.792;8.964;2022-09-20T07:40:34;44.49;41.24;60.47;;
36217;Laerm;22259;48.792;8.964;2022-09-20T07:43:00;43.63;40.97;51.48;;
36217;Laerm;22259;48.792;8.964;2022-09-20T07:45:25;50.02;41.04;67.20;;
36217;Laerm;22259;48.792;8.964;2022-09-20T07:47:50;44.24;40.89;59.35;;
36217;Laerm;22259;48.792;8.964;2022-09-20T07:50:16;42.74;39.81;50.13;;
36217;Laerm;22259;48.792;8.964;2022-09-20T07:52:43;51.26;40.43;68.17;;
36217;Laerm;22259;48.792;8.964;2022-09-20T07:55:08;44.11;40.67;65.45;;
36217;Laerm;22259;48.792;8.964;2022-09-20T07:57:34;43.82;40.73;57.60;;
36217;Laerm;22259;48.792;8.964;2022-09-20T08:00:02;49.08;39.65;64.45;;
36217;Laerm;22259;48.792;8.964;2022-09-20T08:02:28;43.19;40.16;60.26;;
36217;Laerm;22259;48.792;8.964;2022-09-20T08:04:53;43.48;40.33;48.58;;
36217;Laerm;22259;48.792;8.964;2022-09-20T08:07:18;50.70;39.89;67.21;;
36217;Laerm;22259;48.792;8.964;2022-09-20T08:09:44;42.26;39.49;53.61;;
36217;Laerm;22259;48.792;8.964;2022-09-20T08:12:09;42.88;39.81;55.70;;
36217;Laerm;22259;48.792;8.964;2022-09-20T08:14:35;49.33;39.99;63.76;;
36217;Laerm;22259;48.792;8.964;2022-09-20T08:17:00;42.01;39.18;48.87;;
36217;Laerm;22259;48.792;8.964;2022-09-20T08:19:26;48.51;39.28;65.27;;
36217;Laerm;22259;48.792;8.964;2022-09-20T08:21:51;54.41;39.05;71.35;;
36217;Laerm;22259;48.792;8.964;2022-09-20T08:24:18;48.74;39.21;63.10;;
36217;Laerm;22259;48.792;8.964;2022-09-20T08:26:43;41.88;39.18;52.35;;
36217;Laerm;22259;48.792;8.964;2022-09-20T08:29:09;42.48;39.40;55.04;;
36217;Laerm;22259;48.792;8.964;2022-09-20T08:31:36;47.65;39.31;65.65;;
36217;Laerm;22259;48.792;8.964;2022-09-20T08:34:02;50.82;39.89;64.85;;
36217;Laerm;22259;48.792;8.964;2022-09-20T08:36:28;54.07;40.08;74.81;;
36217;Laerm;22259;48.792;8.964;2022-09-20T08:38:53;53.61;39.81;65.63;;
36217;Laerm;22259;48.792;8.964;2022-09-20T08:41:29;47.00;40.53;63.74;;
36217;Laerm;22259;48.792;8.964;2022-09-20T08:43:55;43.91;40.80;59.25;;
36217;Laerm;22259;48.792;8.964;2022-09-20T08:46:23;48.63;39.70;64.88;;
36217;Laerm;22259;48.792;8.964;2022-09-20T08:48:51;50.92;40.05;67.56;;
36217;Laerm;22259;48.792;8.964;2022-09-20T08:51:17;43.23;40.23;62.62;;
36217;Laerm;22259;48.792;8.964;2022-09-20T08:53:45;43.56;40.50;56.60;;
36217;Laerm;22259;48.792;8.964;2022-09-20T08:56:11;43.01;40.21;52.89;;
36217;Laerm;22259;48.792;8.964;2022-09-20T08:58:36;42.47;39.25;48.87;;
36217;Laerm;22259;48.792;8.964;2022-09-20T09:01:03;50.36;39.25;67.90;;
36217;Laerm;22259;48.792;8.964;2022-09-20T09:03:30;42.49;40.23;60.44;;
36217;Laerm;22259;48.792;8.964;2022-09-20T09:05:56;58.41;40.13;75.08;;
36217;Laerm;22259;48.792;8.964;2022-09-20T09:08:23;43.22;40.85;58.53;;
36217;Laerm;22259;48.792;8.964;2022-09-20T09:10:54;55.37;39.75;71.24;;
36217;Laerm;22259;48.792;8.964;2022-09-20T09:13:23;42.04;39.75;54.39;;
36217;Laerm;22259;48.792;8.964;2022-09-20T09:15:58;51.39;39.31;70.38;;
36217;Laerm;22259;48.792;8.964;2022-09-20T09:18:31;51.93;39.05;68.97;;
36217;Laerm;22259;48.792;8.964;2022-09-20T09:20:57;42.04;39.25;47.90;;
36217;Laerm;22259;48.792;8.964;2022-09-20T09:23:24;42.14;39.28;52.59;;
36217;Laerm;22259;48.792;8.964;2022-09-20T09:25:51;42.09;39.15;49.21;;
36217;Laerm;22259;48.792;8.964;2022-09-20T09:28:19;41.91;39.15;54.35;;
36217;Laerm;22259;48.792;8.964;2022-09-20T09:30:47;42.57;39.28;50.43;;
36217;Laerm;22259;48.792;8.964;2022-09-20T09:33:32;50.29;39.34;65.27;;
36217;Laerm;22259;48.792;8.964;2022-09-20T09:35:59;46.34;38.95;63.73;;
36217;Laerm;22259;48.792;8.964;2022-09-20T09:38:29;42.44;38.83;50.47;;
36217;Laerm;22259;48.792;8.964;2022-09-20T09:40:56;42.32;38.98;47.10;;
36217;Laerm;22259;48.792;8.964;2022-09-20T09:43:29;43.73;38.98;60.67;;
36217;Laerm;22259;48.792;8.964;2022-09-20T09:46:14;48.67;39.46;64.68;;
36217;Laerm;22259;48.792;8.964;2022-09-20T09:48:41;42.56;39.40;53.88;;
36217;Laerm;22259;48.792;8.964;2022-09-20T09:51:11;42.20;39.40;51.24;;
36217;Laerm;22259;48.792;8.964;2022-09-20T09:53:36;43.02;39.43;60.12;;
36217;Laerm;22259;48.792;8.964;2022-09-20T10:01:46;47.93;39.15;70.42;;
36217;Laerm;22259;48.792;8.964;2022-09-20T10:04:36;42.81;39.97;49.80;;
36217;Laerm;22259;48.792;8.964;2022-09-20T10:07:08;48.44;40.18;64.89;;
36217;Laerm;22259;48.792;8.964;2022-09-20T10:10:25;43.88;40.13;62.83;;
36217;Laerm;22259;48.792;8.964;2022-09-20T10:13:11;45.85;39.40;70.57;;
36217;Laerm;22259;48.792;8.964;2022-09-20T10:15:52;50.61;39.58;69.37;;
36217;Laerm;22259;48.792;8.964;2022-09-20T10:18:26;49.95;40.80;67.18;;
36217;Laerm;22259;48.792;8.964;2022-09-20T10:23:54;57.72;39.89;77.03;;
36217;Laerm;22259;48.792;8.964;2022-09-20T10:26:34;42.81;39.89;53.56;;
36217;Laerm;22259;48.792;8.964;2022-09-20T10:34:15;49.60;39.67;66.69;;
36217;Laerm;22259;48.792;8.964;2022-09-20T10:36:52;42.98;40.36;50.60;;
36217;Laerm;22259;48.792;8.964;2022-09-20T10:39:33;43.87;40.16;67.81;;
36217;Laerm;22259;48.792;8.964;2022-09-20T10:42:03;43.30;40.41;53.31;;
36217;Laerm;22259;48.792;8.964;2022-09-20T10:45:52;45.77;40.46;62.33;;
36217;Laerm;22259;48.792;8.964;2022-09-20T10:48:43;46.81;39.75;65.12;;
36217;Laerm;22259;48.792;8.964;2022-09-20T10:51:23;51.31;40.46;70.66;;
36217;Laerm;22259;48.792;8.964;2022-09-20T10:54:04;42.10;39.46;51.16;;
36217;Laerm;22259;48.792;8.964;2022-09-20T10:56:38;42.74;39.81;55.81;;
36217;Laerm;22259;48.792;8.964;2022-09-20T10:59:12;54.38;40.18;73.05;;
36217;Laerm;22259;48.792;8.964;2022-09-20T11:01:47;50.05;39.61;66.90;;
36217;Laerm;22259;48.792;8.964;2022-09-20T11:04:31;41.67;39.05;52.01;;
36217;Laerm;22259;48.792;8.964;2022-09-20T11:12:14;42.33;39.37;54.12;;
36217;Laerm;22259;48.792;8.964;2022-09-20T11:14:43;49.26;39.95;69.21;;
36217;Laerm;22259;48.792;8.964;2022-09-20T11:17:23;53.66;39.84;74.20;;
36217;Laerm;22259;48.792;8.964;2022-09-20T11:20:02;51.93;41.12;77.19;;
36217;Laerm;22259;48.792;8.964;2022-09-20T11:22:46;50.24;41.18;69.46;;
36217;Laerm;22259;48.792;8.964;2022-09-20T11:25:16;44.53;41.14;65.41;;
36217;Laerm;22259;48.792;8.964;2022-09-20T11:27:47;45.24;42.68;65.37;;
36217;Laerm;22259;48.792;8.964;2022-09-20T11:30:15;48.69;42.37;64.92;;
36217;Laerm;22259;48.792;8.964;2022-09-20T11:35:29;44.06;40.55;55.63;;
36217;Laerm;22259;48.792;8.964;2022-09-20T11:40:42;50.20;39.46;70.08;;
36217;Laerm;22259;48.792;8.964;2022-09-20T11:43:09;41.94;39.02;55.49;;
36217;Laerm;22259;48.792;8.964;2022-09-20T11:45:36;49.35;38.92;65.84;;
36217;Laerm;22259;48.792;8.964;2022-09-20T11:48:06;48.49;39.28;63.45;;
36217;Laerm;22259;48.792;8.964;2022-09-20T11:50:49;41.52;39.05;55.71;;
36217;Laerm;22259;48.792;8.964;2022-09-20T12:01:41;47.91;39.37;66.93;;
36217;Laerm;22259;48.792;8.964;2022-09-20T12:04:11;41.46;38.52;48.46;;
36217;Laerm;22259;48.792;8.964;2022-09-20T12:06:55;42.77;38.92;50.93;;
36217;Laerm;22259;48.792;8.964;2022-09-20T12:09:28;42.55;39.75;53.91;;
36217;Laerm;22259;48.792;8.964;2022-09-20T12:11:55;44.39;40.36;65.69;;
36217;Laerm;22259;48.792;8.964;2022-09-20T12:14:24;42.59;39.67;57.79;;
36217;Laerm;22259;48.792;8.964;2022-09-20T12:16:51;52.59;39.46;67.33;;
36217;Laerm;22259;48.792;8.964;2022-09-20T12:19:36;42.63;39.67;51.08;;
36217;Laerm;22259;48.792;8.964;2022-09-20T12:24:49;42.60;39.89;51.13;;
36217;Laerm;22259;48.792;8.964;2022-09-20T12:27:55;42.43;39.05;50.71;;
36217;Laerm;22259;48.792;8.964;2022-09-20T12:30:21;42.24;39.31;47.71;;
36217;Laerm;22259;48.792;8.964;2022-09-20T12:32:50;51.54;39.55;65.17;;
36217;Laerm;22259;48.792;8.964;2022-09-20T12:44:39;45.04;39.46;68.73;;
36217;Laerm;22259;48.792;8.964;2022-09-20T12:47:25;53.60;40.89;67.10;;
36217;Laerm;22259;48.792;8.964;2022-09-20T12:49:59;42.53;39.31;55.89;;
36217;Laerm;22259;48.792;8.964;2022-09-20T12:52:47;42.36;39.64;54.49;;
36217;Laerm;22259;48.792;8.964;2022-09-20T12:58:18;50.34;39.70;69.43;;
36217;Laerm;22259;48.792;8.964;2022-09-20T13:01:25;49.50;39.32;72.93;;
36217;Laerm;22259;48.792;8.964;2022-09-20T13:03:51;49.08;39.37;68.77;;
36217;Laerm;22259;48.792;8.964;2022-09-20T13:06:21;42.66;40.11;47.43;;
36217;Laerm;22259;48.792;8.964;2022-09-20T13:11:50;43.26;40.41;52.92;;
36217;Laerm;22259;48.792;8.964;2022-09-20T13:14:26;46.70;41.30;62.83;;
36217;Laerm;22259;48.792;8.964;2022-09-20T13:16:56;52.57;41.32;66.75;;
36217;Laerm;22259;48.792;8.964;2022-09-20T13:19:24;44.28;41.63;52.18;;
36217;Laerm;22259;48.792;8.964;2022-09-20T13:22:03;43.92;41.34;57.42;;
36217;Laerm;22259;48.792;8.964;2022-09-20T13:24:36;55.06;40.78;69.76;;
36217;Laerm;22259;48.792;8.964;2022-09-20T13:27:04;43.80;40.82;51.50;;
36217;Laerm;22259;48.792;8.964;2022-09-20T13:29:36;44.17;40.91;51.48;;
36217;Laerm;22259;48.792;8.964;2022-09-20T13:35:03;43.64;40.71;56.81;;
36217;Laerm;22259;48.792;8.964;2022-09-20T13:37:28;46.64;40.64;64.68;;
36217;Laerm;22259;48.792;8.964;2022-09-20T13:39:54;57.85;42.30;70.97;;
36217;Laerm;22259;48.792;8.964;2022-09-20T13:42:19;44.68;41.68;50.87;;
36217;Laerm;22259;48.792;8.964;2022-09-20T13:44:46;50.36;41.38;67.42;;
36217;Laerm;22259;48.792;8.964;2022-09-20T13:47:27;50.83;41.77;66.06;;
36217;Laerm;22259;48.792;8.964;2022-09-20T13:52:42;45.09;42.89;56.02;;
36217;Laerm;22259;48.792;8.964;2022-09-20T13:55:18;45.08;42.14;61.88;;
36217;Laerm;22259;48.792;8.964;2022-09-20T13:57:44;44.98;42.37;56.71;;
36217;Laerm;22259;48.792;8.964;2022-09-20T14:00:12;44.62;42.27;48.30;;
36217;Laerm;22259;48.792;8.964;2022-09-20T14:02:38;53.67;41.64;66.65;;
36217;Laerm;22259;48.792;8.964;2022-09-20T14:05:04;44.16;41.53;50.35;;
36217;Laerm;22259;48.792;8.964;2022-09-20T14:07:31;46.13;41.50;60.76;;
36217;Laerm;22259;48.792;8.964;2022-09-20T14:09:57;43.59;40.89;49.25;;
36217;Laerm;22259;48.792;8.964;2022-09-20T14:12:23;44.53;41.36;60.18;;
36217;Laerm;22259;48.792;8.964;2022-09-20T14:14:49;52.16;41.48;67.77;;
36217;Laerm;22259;48.792;8.964;2022-09-20T14:17:15;43.59;40.60;52.85;;
36217;Laerm;22259;48.792;8.964;2022-09-20T14:19:43;55.87;39.84;67.76;;
36217;Laerm;22259;48.792;8.964;2022-09-20T14:22:44;42.27;39.52;55.84;;
36217;Laerm;22259;48.792;8.964;2022-09-20T14:25:18;42.82;39.95;59.64;;
36217;Laerm;22259;48.792;8.964;2022-09-20T14:27:44;41.82;39.25;45.52;;
36217;Laerm;22259;48.792;8.964;2022-09-20T14:32:53;52.63;39.92;68.85;;
36217;Laerm;22259;48.792;8.964;2022-09-20T14:35:20;42.14;39.78;56.87;;
36217;Laerm;22259;48.792;8.964;2022-09-20T14:37:52;46.29;40.03;61.18;;
36217;Laerm;22259;48.792;8.964;2022-09-20T14:40:25;55.65;39.40;73.04;;
36217;Laerm;22259;48.792;8.964;2022-09-20T14:42:57;41.75;39.15;45.76;;
36217;Laerm;22259;48.792;8.964;2022-09-20T14:45:34;53.76;39.08;70.89;;
36217;Laerm;22259;48.792;8.964;2022-09-20T14:48:04;49.37;39.26;64.01;;
36217;Laerm;22259;48.792;8.964;2022-09-20T14:50:31;43.22;39.12;62.81;;
36217;Laerm;22259;48.792;8.964;2022-09-20T14:56:58;43.18;39.67;54.01;;
36217;Laerm;22259;48.792;8.964;2022-09-20T14:59:24;49.79;40.31;62.10;;
36217;Laerm;22259;48.792;8.964;2022-09-20T15:01:57;53.57;39.81;68.78;;
36217;Laerm;22259;48.792;8.964;2022-09-20T15:04:23;43.10;40.31;55.64;;
36217;Laerm;22259;48.792;8.964;2022-09-20T15:06:51;44.92;39.52;59.17;;
36217;Laerm;22259;48.792;8.964;2022-09-20T15:09:17;43.33;40.06;53.36;;
36217;Laerm;22259;48.792;8.964;2022-09-20T15:11:43;47.19;39.12;63.63;;
36217;Laerm;22259;48.792;8.964;2022-09-20T15:14:08;42.78;39.60;50.76;;
36217;Laerm;22259;48.792;8.964;2022-09-20T15:16:34;50.73;40.60;66.48;;
36217;Laerm;22259;48.792;8.964;2022-09-20T15:18:59;50.48;40.16;64.19;;
36217;Laerm;22259;48.792;8.964;2022-09-20T15:21:25;47.78;40.23;65.63;;
36217;Laerm;22259;48.792;8.964;2022-09-20T15:23:50;42.99;40.36;48.66;;
36217;Laerm;22259;48.792;8.964;2022-09-20T15:26:16;43.43;40.85;48.38;;
36217;Laerm;22259;48.792;8.964;2022-09-20T15:28:42;42.68;40.36;45.59;;
36217;Laerm;22259;48.792;8.964;2022-09-20T15:31:08;50.91;40.41;67.33;;
36217;Laerm;22259;48.792;8.964;2022-09-20T15:33:34;50.70;40.62;66.31;;
36217;Laerm;22259;48.792;8.964;2022-09-20T15:36:02;45.58;40.03;60.11;;
36217;Laerm;22259;48.792;8.964;2022-09-20T15:38:28;42.93;40.33;51.96;;
36217;Laerm;22259;48.792;8.964;2022-09-20T15:40:53;48.52;41.06;64.99;;
36217;Laerm;22259;48.792;8.964;2022-09-20T15:43:19;44.07;41.08;49.95;;
36217;Laerm;22259;48.792;8.964;2022-09-20T15:45:52;50.44;41.42;67.07;;
36217;Laerm;22259;48.792;8.964;2022-09-20T15:48:18;44.27;41.55;54.29;;
36217;Laerm;22259;48.792;8.964;2022-09-20T15:51:02;57.74;41.44;70.95;;
36217;Laerm;22259;48.792;8.964;2022-09-20T15:53:36;43.67;40.38;46.30;;
36217;Laerm;22259;48.792;8.964;2022-09-20T15:56:24;59.90;42.14;71.40;;
36217;Laerm;22259;48.792;8.964;2022-09-20T15:58:55;44.39;41.81;51.02;;
36217;Laerm;22259;48.792;8.964;2022-09-20T16:01:24;58.24;41.57;75.56;;
36217;Laerm;22259;48.792;8.964;2022-09-20T16:03:51;48.69;40.87;63.49;;
36217;Laerm;22259;48.792;8.964;2022-09-20T16:06:17;45.61;40.50;59.41;;
36217;Laerm;22259;48.792;8.964;2022-09-20T16:08:42;42.47;39.54;53.52;;
36217;Laerm;22259;48.792;8.964;2022-09-20T16:11:13;50.99;39.89;65.92;;
36217;Laerm;22259;48.792;8.964;2022-09-20T16:13:38;46.95;40.69;62.27;;
36217;Laerm;22259;48.792;8.964;2022-09-20T16:16:04;43.64;40.33;52.33;;
36217;Laerm;22259;48.792;8.964;2022-09-20T16:18:30;43.52;40.73;54.63;;
36217;Laerm;22259;48.792;8.964;2022-09-20T16:21:15;53.01;40.18;70.83;;
36217;Laerm;22259;48.792;8.964;2022-09-20T16:23:44;42.50;39.95;46.35;;
36217;Laerm;22259;48.792;8.964;2022-09-20T16:26:10;42.72;39.95;50.17;;
36217;Laerm;22259;48.792;8.964;2022-09-20T16:28:40;42.19;39.95;53.95;;
36217;Laerm;22259;48.792;8.964;2022-09-20T16:31:05;49.86;39.73;70.78;;
36217;Laerm;22259;48.792;8.964;2022-09-20T16:33:31;41.50;38.85;48.02;;
36217;Laerm;22259;48.792;8.964;2022-09-20T16:35:57;51.64;39.08;70.14;;
36217;Laerm;22259;48.792;8.964;2022-09-20T16:38:22;43.53;38.74;54.91;;
36217;Laerm;22259;48.792;8.964;2022-09-20T16:40:48;48.92;39.12;63.26;;
36217;Laerm;22259;48.792;8.964;2022-09-20T16:43:15;48.24;38.85;64.40;;
36217;Laerm;22259;48.792;8.964;2022-09-20T16:45:59;48.05;38.60;66.79;;
36217;Laerm;22259;48.792;8.964;2022-09-20T16:48:24;48.82;39.97;66.90;;
36217;Laerm;22259;48.792;8.964;2022-09-20T16:50:55;48.80;39.55;64.65;;
36217;Laerm;22259;48.792;8.964;2022-09-20T16:53:21;42.64;39.49;51.83;;
36217;Laerm;22259;48.792;8.964;2022-09-20T16:55:46;42.78;40.03;58.88;;
36217;Laerm;22259;48.792;8.964;2022-09-20T16:58:13;42.16;39.52;48.56;;
36217;Laerm;22259;48.792;8.964;2022-09-20T17:00:38;42.92;39.70;45.41;;
36217;Laerm;22259;48.792;8.964;2022-09-20T17:03:04;52.10;40.60;65.47;;
36217;Laerm;22259;48.792;8.964;2022-09-20T17:05:29;42.58;40.28;45.07;;
36217;Laerm;22259;48.792;8.964;2022-09-20T17:07:55;49.14;39.92;68.68;;
36217;Laerm;22259;48.792;8.964;2022-09-20T17:10:20;42.26;38.67;65.15;;
36217;Laerm;22259;48.792;8.964;2022-09-20T17:12:48;48.12;40.18;64.88;;
36217;Laerm;22259;48.792;8.964;2022-09-20T17:15:16;51.14;40.50;71.80;;